Burchinal, Iowa
Current Conditions -  °F | °C
As of 2:53 PM on Tuesday 25 Nov 2014 (Local Time) from KMCW Reporting Station
Broken Clouds Broken Clouds  
Wind Chill: 23°   Ceiling: 7500
Heat Index: 28°   Visibility: 10mi
Dew Point: 12°   Wind: 5mph
Humidity: 51%   Direction: 180°S
Pressure: 30.05"   Gusts: NA
Location:  43.0122°N, 93.2395°W
Report Text: KMCW 252053Z AUTO 18004KT 10SM BKN075 M02/M11 A3005 RMK AO2 SLP192 T10221111 58012
Loading
Personal Weather Stations






























Interactive Weather Map New forecast layout! Learn more

10-Day Weather Forecast

Advertisements
Track Severe Weather on mobile